Terminal Aerodrome Forecast
Issued by NWS Tuscon, AZ

Home | Current Version | Previous Version | Text Only | Print | Product List | Glossary On
Versions: 1 2 3 4 5 6 7 8 9 10 11 12 13 14 15 16 17 18 19 20 21 22 23 24
893
FTUS45 KTWC 161128
TAFTUS
TAF
KTUS 161128Z 1612/1712 VRB03KT P6SM SCT025 BKN035
      TEMPO 1612/1614 BKN025
     FM161400 15004KT P6SM SCT035 OVC040
     FM162000 33006KT P6SM SCT050 BKN070
     FM170200 24005KT P6SM BKN070
     FM170600 14005KT P6SM BKN080=

USA.gov is the U.S. government's official web portal to all federal, state and local government web resources and services.